sensor_id;sensor_type;location;lat;lon;timestamp;temperature;humidity
7445;DHT22;3764;48.126;11.594;2023-08-12T00:02:17;20.30;99.90
7445;DHT22;3764;48.126;11.594;2023-08-12T00:04:45;20.20;99.90
7445;DHT22;3764;48.126;11.594;2023-08-12T00:07:13;20.20;99.90
7445;DHT22;3764;48.126;11.594;2023-08-12T00:09:41;20.20;99.90
7445;DHT22;3764;48.126;11.594;2023-08-12T00:12:08;20.20;99.90
7445;DHT22;3764;48.126;11.594;2023-08-12T00:14:35;20.20;99.90
7445;DHT22;3764;48.126;11.594;2023-08-12T00:17:04;20.10;99.90
7445;DHT22;3764;48.126;11.594;2023-08-12T00:19:31;20.10;99.90
7445;DHT22;3764;48.126;11.594;2023-08-12T00:21:58;20.10;99.90
7445;DHT22;3764;48.126;11.594;2023-08-12T00:24:25;20.10;99.90
7445;DHT22;3764;48.126;11.594;2023-08-12T00:26:52;20.10;99.90
7445;DHT22;3764;48.126;11.594;2023-08-12T00:29:19;20.10;99.90
7445;DHT22;3764;48.126;11.594;2023-08-12T00:31:46;20.10;99.90
7445;DHT22;3764;48.126;11.594;2023-08-12T00:34:15;20.00;99.90
7445;DHT22;3764;48.126;11.594;2023-08-12T00:36:42;20.00;99.90
7445;DHT22;3764;48.126;11.594;2023-08-12T00:39:09;20.00;99.90
7445;DHT22;3764;48.126;11.594;2023-08-12T00:41:36;20.00;99.90
7445;DHT22;3764;48.126;11.594;2023-08-12T00:44:04;19.90;99.90
7445;DHT22;3764;48.126;11.594;2023-08-12T00:46:31;19.90;99.90
7445;DHT22;3764;48.126;11.594;2023-08-12T00:48:59;19.90;99.90
7445;DHT22;3764;48.126;11.594;2023-08-12T00:51:27;19.90;99.90
7445;DHT22;3764;48.126;11.594;2023-08-12T00:53:56;19.90;99.90
7445;DHT22;3764;48.126;11.594;2023-08-12T00:56:24;19.80;99.90
7445;DHT22;3764;48.126;11.594;2023-08-12T00:58:52;19.80;99.90
7445;DHT22;3764;48.126;11.594;2023-08-12T01:01:20;19.80;99.90
7445;DHT22;3764;48.126;11.594;2023-08-12T01:03:47;19.70;99.90
7445;DHT22;3764;48.126;11.594;2023-08-12T01:06:14;19.80;99.90
7445;DHT22;3764;48.126;11.594;2023-08-12T01:08:43;19.70;99.90
7445;DHT22;3764;48.126;11.594;2023-08-12T01:11:14;19.70;99.90
7445;DHT22;3764;48.126;11.594;2023-08-12T01:13:49;19.70;99.90
7445;DHT22;3764;48.126;11.594;2023-08-12T01:16:19;19.70;99.90
7445;DHT22;3764;48.126;11.594;2023-08-12T01:18:48;19.60;99.90
7445;DHT22;3764;48.126;11.594;2023-08-12T01:21:16;19.60;99.90
7445;DHT22;3764;48.126;11.594;2023-08-12T01:23:45;19.60;99.90
7445;DHT22;3764;48.126;11.594;2023-08-12T01:26:13;19.60;99.90
7445;DHT22;3764;48.126;11.594;2023-08-12T01:28:40;19.50;99.90
7445;DHT22;3764;48.126;11.594;2023-08-12T01:31:11;19.50;99.90
7445;DHT22;3764;48.126;11.594;2023-08-12T01:33:44;19.50;99.90
7445;DHT22;3764;48.126;11.594;2023-08-12T01:36:16;19.50;99.90
7445;DHT22;3764;48.126;11.594;2023-08-12T01:38:46;19.40;99.90
7445;DHT22;3764;48.126;11.594;2023-08-12T01:41:14;19.40;99.90
7445;DHT22;3764;48.126;11.594;2023-08-12T01:43:42;19.40;99.90
7445;DHT22;3764;48.126;11.594;2023-08-12T01:46:10;19.40;99.90
7445;DHT22;3764;48.126;11.594;2023-08-12T01:48:37;19.40;99.90
7445;DHT22;3764;48.126;11.594;2023-08-12T01:51:04;19.30;99.90
7445;DHT22;3764;48.126;11.594;2023-08-12T01:53:31;19.30;99.90
7445;DHT22;3764;48.126;11.594;2023-08-12T01:56:00;19.30;99.90
7445;DHT22;3764;48.126;11.594;2023-08-12T01:58:27;19.30;99.90
7445;DHT22;3764;48.126;11.594;2023-08-12T02:00:54;19.30;99.90
7445;DHT22;3764;48.126;11.594;2023-08-12T02:03:21;19.20;99.90
7445;DHT22;3764;48.126;11.594;2023-08-12T02:05:48;19.20;99.90
7445;DHT22;3764;48.126;11.594;2023-08-12T02:08:15;19.20;99.90
7445;DHT22;3764;48.126;11.594;2023-08-12T02:10:42;19.20;99.90
7445;DHT22;3764;48.126;11.594;2023-08-12T02:13:10;19.10;99.90
7445;DHT22;3764;48.126;11.594;2023-08-12T02:15:38;19.10;99.90
7445;DHT22;3764;48.126;11.594;2023-08-12T02:18:05;19.10;99.90
7445;DHT22;3764;48.126;11.594;2023-08-12T02:20:32;19.10;99.90
7445;DHT22;3764;48.126;11.594;2023-08-12T02:22:59;19.10;99.90
7445;DHT22;3764;48.126;11.594;2023-08-12T02:25:26;19.10;99.90
7445;DHT22;3764;48.126;11.594;2023-08-12T02:27:54;19.00;99.90
7445;DHT22;3764;48.126;11.594;2023-08-12T02:30:22;19.00;99.90
7445;DHT22;3764;48.126;11.594;2023-08-12T02:32:49;19.00;99.90
7445;DHT22;3764;48.126;11.594;2023-08-12T02:35:17;19.00;99.90
7445;DHT22;3764;48.126;11.594;2023-08-12T02:37:44;19.00;99.90
7445;DHT22;3764;48.126;11.594;2023-08-12T02:40:12;18.90;99.90
7445;DHT22;3764;48.126;11.594;2023-08-12T02:42:39;18.90;99.90
7445;DHT22;3764;48.126;11.594;2023-08-12T02:45:06;18.90;99.90
7445;DHT22;3764;48.126;11.594;2023-08-12T02:47:35;18.90;99.90
7445;DHT22;3764;48.126;11.594;2023-08-12T02:50:02;18.80;99.90
7445;DHT22;3764;48.126;11.594;2023-08-12T02:52:29;18.80;99.90
7445;DHT22;3764;48.126;11.594;2023-08-12T02:54:56;18.80;99.90
7445;DHT22;3764;48.126;11.594;2023-08-12T02:57:23;18.80;99.90
7445;DHT22;3764;48.126;11.594;2023-08-12T02:59:50;18.80;99.90
7445;DHT22;3764;48.126;11.594;2023-08-12T03:02:17;18.70;99.90
7445;DHT22;3764;48.126;11.594;2023-08-12T03:04:46;18.70;99.90
7445;DHT22;3764;48.126;11.594;2023-08-12T03:07:13;18.70;99.90
7445;DHT22;3764;48.126;11.594;2023-08-12T03:09:40;18.70;99.90
7445;DHT22;3764;48.126;11.594;2023-08-12T03:12:07;18.70;99.90
7445;DHT22;3764;48.126;11.594;2023-08-12T03:14:34;18.70;99.90
7445;DHT22;3764;48.126;11.594;2023-08-12T03:17:02;18.60;99.90
7445;DHT22;3764;48.126;11.594;2023-08-12T03:19:29;18.60;99.90
7445;DHT22;3764;48.126;11.594;2023-08-12T03:21:57;18.60;99.90
7445;DHT22;3764;48.126;11.594;2023-08-12T03:24:25;18.60;99.90
7445;DHT22;3764;48.126;11.594;2023-08-12T03:26:52;18.50;99.90
7445;DHT22;3764;48.126;11.594;2023-08-12T03:29:19;18.50;99.90
7445;DHT22;3764;48.126;11.594;2023-08-12T03:31:46;18.50;99.90
7445;DHT22;3764;48.126;11.594;2023-08-12T03:34:13;18.50;99.90
7445;DHT22;3764;48.126;11.594;2023-08-12T03:36:40;18.40;99.90
7445;DHT22;3764;48.126;11.594;2023-08-12T03:39:09;18.40;99.90
7445;DHT22;3764;48.126;11.594;2023-08-12T03:41:36;18.40;99.90
7445;DHT22;3764;48.126;11.594;2023-08-12T03:44:03;18.40;99.90
7445;DHT22;3764;48.126;11.594;2023-08-12T03:46:31;18.40;99.90
7445;DHT22;3764;48.126;11.594;2023-08-12T03:48:58;18.40;99.90
7445;DHT22;3764;48.126;11.594;2023-08-12T03:51:25;18.30;99.90
7445;DHT22;3764;48.126;11.594;2023-08-12T03:53:52;18.40;99.90
7445;DHT22;3764;48.126;11.594;2023-08-12T03:56:20;18.30;99.90
7445;DHT22;3764;48.126;11.594;2023-08-12T03:58:47;18.30;99.90
7445;DHT22;3764;48.126;11.594;2023-08-12T04:01:15;18.30;99.90
7445;DHT22;3764;48.126;11.594;2023-08-12T04:03:42;18.30;99.90
7445;DHT22;3764;48.126;11.594;2023-08-12T04:06:09;18.30;99.90
7445;DHT22;3764;48.126;11.594;2023-08-12T04:08:36;18.30;99.90
7445;DHT22;3764;48.126;11.594;2023-08-12T04:11:03;18.20;99.90
7445;DHT22;3764;48.126;11.594;2023-08-12T04:13:31;18.20;99.90
7445;DHT22;3764;48.126;11.594;2023-08-12T04:15:58;18.20;99.90
7445;DHT22;3764;48.126;11.594;2023-08-12T04:18:26;18.20;99.90
7445;DHT22;3764;48.126;11.594;2023-08-12T04:20:53;18.20;99.90
7445;DHT22;3764;48.126;11.594;2023-08-12T04:23:20;18.20;99.90
7445;DHT22;3764;48.126;11.594;2023-08-12T04:25:48;18.20;99.90
7445;DHT22;3764;48.126;11.594;2023-08-12T04:28:16;18.10;99.90
7445;DHT22;3764;48.126;11.594;2023-08-12T04:30:46;18.10;99.90
7445;DHT22;3764;48.126;11.594;2023-08-12T04:33:13;18.10;99.90
7445;DHT22;3764;48.126;11.594;2023-08-12T04:35:41;18.10;99.90
7445;DHT22;3764;48.126;11.594;2023-08-12T04:38:08;18.10;99.90
7445;DHT22;3764;48.126;11.594;2023-08-12T04:40:38;18.10;99.90
7445;DHT22;3764;48.126;11.594;2023-08-12T04:43:05;18.00;99.90
7445;DHT22;3764;48.126;11.594;2023-08-12T04:45:32;18.00;99.90
7445;DHT22;3764;48.126;11.594;2023-08-12T04:48:01;18.00;99.90
7445;DHT22;3764;48.126;11.594;2023-08-12T04:50:29;18.00;99.90
7445;DHT22;3764;48.126;11.594;2023-08-12T04:52:56;18.00;99.90
7445;DHT22;3764;48.126;11.594;2023-08-12T04:55:25;18.00;99.90
7445;DHT22;3764;48.126;11.594;2023-08-12T04:57:52;18.00;99.90
7445;DHT22;3764;48.126;11.594;2023-08-12T05:00:20;18.00;99.90
7445;DHT22;3764;48.126;11.594;2023-08-12T05:02:47;18.00;99.90
7445;DHT22;3764;48.126;11.594;2023-08-12T05:05:16;18.00;99.90
7445;DHT22;3764;48.126;11.594;2023-08-12T05:07:43;18.00;99.90
7445;DHT22;3764;48.126;11.594;2023-08-12T05:10:14;18.00;99.90
7445;DHT22;3764;48.126;11.594;2023-08-12T05:12:42;18.00;99.90
7445;DHT22;3764;48.126;11.594;2023-08-12T05:15:09;18.00;99.90
7445;DHT22;3764;48.126;11.594;2023-08-12T05:17:37;18.00;99.90
7445;DHT22;3764;48.126;11.594;2023-08-12T05:20:05;18.00;99.90
7445;DHT22;3764;48.126;11.594;2023-08-12T05:22:34;18.00;99.90
7445;DHT22;3764;48.126;11.594;2023-08-12T05:25:01;18.00;99.90
7445;DHT22;3764;48.126;11.594;2023-08-12T05:27:28;18.00;99.90
7445;DHT22;3764;48.126;11.594;2023-08-12T05:29:55;18.00;99.90
7445;DHT22;3764;48.126;11.594;2023-08-12T05:32:22;18.00;99.90
7445;DHT22;3764;48.126;11.594;2023-08-12T05:34:50;18.00;99.90
7445;DHT22;3764;48.126;11.594;2023-08-12T05:37:17;18.10;99.90
7445;DHT22;3764;48.126;11.594;2023-08-12T05:39:46;18.00;99.90
7445;DHT22;3764;48.126;11.594;2023-08-12T05:42:13;18.10;99.90
7445;DHT22;3764;48.126;11.594;2023-08-12T05:44:40;18.10;99.90
7445;DHT22;3764;48.126;11.594;2023-08-12T05:47:08;18.10;99.90
7445;DHT22;3764;48.126;11.594;2023-08-12T05:49:35;18.10;99.90
7445;DHT22;3764;48.126;11.594;2023-08-12T05:52:02;18.10;99.90
7445;DHT22;3764;48.126;11.594;2023-08-12T05:54:29;18.10;99.90
7445;DHT22;3764;48.126;11.594;2023-08-12T05:56:58;18.10;99.90
7445;DHT22;3764;48.126;11.594;2023-08-12T05:59:25;18.10;99.90
7445;DHT22;3764;48.126;11.594;2023-08-12T06:01:52;18.10;99.90
7445;DHT22;3764;48.126;11.594;2023-08-12T06:04:19;18.20;99.90
7445;DHT22;3764;48.126;11.594;2023-08-12T06:06:46;18.20;99.90
7445;DHT22;3764;48.126;11.594;2023-08-12T06:09:13;18.20;99.90
7445;DHT22;3764;48.126;11.594;2023-08-12T06:11:40;18.20;99.90
7445;DHT22;3764;48.126;11.594;2023-08-12T06:14:08;18.20;99.90
7445;DHT22;3764;48.126;11.594;2023-08-12T06:16:35;18.20;99.90
7445;DHT22;3764;48.126;11.594;2023-08-12T06:19:05;18.20;99.90
7445;DHT22;3764;48.126;11.594;2023-08-12T06:21:32;18.30;99.90
7445;DHT22;3764;48.126;11.594;2023-08-12T06:23:59;18.30;99.90
7445;DHT22;3764;48.126;11.594;2023-08-12T06:26:26;18.30;99.90
7445;DHT22;3764;48.126;11.594;2023-08-12T06:28:53;18.30;99.90
7445;DHT22;3764;48.126;11.594;2023-08-12T06:31:21;18.30;99.90
7445;DHT22;3764;48.126;11.594;2023-08-12T06:33:48;18.40;99.90
7445;DHT22;3764;48.126;11.594;2023-08-12T06:36:15;18.40;99.90
7445;DHT22;3764;48.126;11.594;2023-08-12T06:38:42;18.50;99.90
7445;DHT22;3764;48.126;11.594;2023-08-12T06:41:09;18.50;99.90
7445;DHT22;3764;48.126;11.594;2023-08-12T06:43:36;18.60;99.90
7445;DHT22;3764;48.126;11.594;2023-08-12T06:46:03;18.60;99.90
7445;DHT22;3764;48.126;11.594;2023-08-12T06:48:32;18.70;99.90
7445;DHT22;3764;48.126;11.594;2023-08-12T06:50:59;18.70;99.90
7445;DHT22;3764;48.126;11.594;2023-08-12T06:53:30;18.80;99.90
7445;DHT22;3764;48.126;11.594;2023-08-12T06:55:57;18.80;99.90
7445;DHT22;3764;48.126;11.594;2023-08-12T06:58:24;18.80;99.90
7445;DHT22;3764;48.126;11.594;2023-08-12T07:00:51;18.90;99.90
7445;DHT22;3764;48.126;11.594;2023-08-12T07:03:19;18.90;99.90
7445;DHT22;3764;48.126;11.594;2023-08-12T07:05:47;19.00;99.90
7445;DHT22;3764;48.126;11.594;2023-08-12T07:08:15;19.00;99.90
7445;DHT22;3764;48.126;11.594;2023-08-12T07:10:42;19.00;99.90
7445;DHT22;3764;48.126;11.594;2023-08-12T07:13:10;19.00;99.90
7445;DHT22;3764;48.126;11.594;2023-08-12T07:15:37;19.10;99.90
7445;DHT22;3764;48.126;11.594;2023-08-12T07:18:05;19.10;99.90
7445;DHT22;3764;48.126;11.594;2023-08-12T07:20:32;19.20;99.90
7445;DHT22;3764;48.126;11.594;2023-08-12T07:23:00;19.30;99.90
7445;DHT22;3764;48.126;11.594;2023-08-12T07:25:27;19.30;99.90
7445;DHT22;3764;48.126;11.594;2023-08-12T07:27:54;19.40;99.90
7445;DHT22;3764;48.126;11.594;2023-08-12T07:30:22;19.50;99.90
7445;DHT22;3764;48.126;11.594;2023-08-12T07:32:49;19.60;99.90
7445;DHT22;3764;48.126;11.594;2023-08-12T07:35:16;19.70;99.90
7445;DHT22;3764;48.126;11.594;2023-08-12T07:37:43;19.70;99.90
7445;DHT22;3764;48.126;11.594;2023-08-12T07:40:11;19.80;99.90
7445;DHT22;3764;48.126;11.594;2023-08-12T07:42:39;19.90;99.90
7445;DHT22;3764;48.126;11.594;2023-08-12T07:45:07;19.90;99.90
7445;DHT22;3764;48.126;11.594;2023-08-12T07:47:35;20.00;99.90
7445;DHT22;3764;48.126;11.594;2023-08-12T07:50:02;20.10;99.90
7445;DHT22;3764;48.126;11.594;2023-08-12T07:52:30;20.10;99.90
7445;DHT22;3764;48.126;11.594;2023-08-12T07:54:57;20.30;99.90
7445;DHT22;3764;48.126;11.594;2023-08-12T07:57:25;20.40;99.90
7445;DHT22;3764;48.126;11.594;2023-08-12T07:59:52;20.50;99.90
7445;DHT22;3764;48.126;11.594;2023-08-12T08:02:19;20.70;99.90
7445;DHT22;3764;48.126;11.594;2023-08-12T08:04:46;20.80;99.90
7445;DHT22;3764;48.126;11.594;2023-08-12T08:07:15;21.00;99.90
7445;DHT22;3764;48.126;11.594;2023-08-12T08:09:42;21.10;99.90
7445;DHT22;3764;48.126;11.594;2023-08-12T08:12:10;21.20;99.90
7445;DHT22;3764;48.126;11.594;2023-08-12T08:14:39;21.20;99.90
7445;DHT22;3764;48.126;11.594;2023-08-12T08:17:06;21.30;99.90
7445;DHT22;3764;48.126;11.594;2023-08-12T08:19:33;21.30;99.90
7445;DHT22;3764;48.126;11.594;2023-08-12T08:22:00;21.30;99.90
7445;DHT22;3764;48.126;11.594;2023-08-12T08:24:28;21.30;99.90
7445;DHT22;3764;48.126;11.594;2023-08-12T08:26:56;21.30;99.90
7445;DHT22;3764;48.126;11.594;2023-08-12T08:29:23;21.40;99.90
7445;DHT22;3764;48.126;11.594;2023-08-12T08:31:51;21.40;99.90
7445;DHT22;3764;48.126;11.594;2023-08-12T08:34:19;21.50;99.90
7445;DHT22;3764;48.126;11.594;2023-08-12T08:36:46;21.50;99.90
7445;DHT22;3764;48.126;11.594;2023-08-12T08:39:13;21.60;99.90
7445;DHT22;3764;48.126;11.594;2023-08-12T08:41:40;21.80;99.90
7445;DHT22;3764;48.126;11.594;2023-08-12T08:44:09;22.00;99.90
7445;DHT22;3764;48.126;11.594;2023-08-12T08:46:36;22.10;99.90
7445;DHT22;3764;48.126;11.594;2023-08-12T08:49:04;22.20;99.90
7445;DHT22;3764;48.126;11.594;2023-08-12T08:51:32;22.30;99.90
7445;DHT22;3764;48.126;11.594;2023-08-12T08:53:59;22.40;99.90
7445;DHT22;3764;48.126;11.594;2023-08-12T08:56:30;22.40;99.90
7445;DHT22;3764;48.126;11.594;2023-08-12T08:58:57;22.50;99.90
7445;DHT22;3764;48.126;11.594;2023-08-12T09:01:25;22.60;99.90
7445;DHT22;3764;48.126;11.594;2023-08-12T09:03:53;22.70;99.90
7445;DHT22;3764;48.126;11.594;2023-08-12T09:06:24;22.70;99.90
7445;DHT22;3764;48.126;11.594;2023-08-12T09:08:53;22.70;99.90
7445;DHT22;3764;48.126;11.594;2023-08-12T09:11:21;22.70;99.90
7445;DHT22;3764;48.126;11.594;2023-08-12T09:13:48;22.70;99.90
7445;DHT22;3764;48.126;11.594;2023-08-12T09:16:15;22.70;99.90
7445;DHT22;3764;48.126;11.594;2023-08-12T09:18:43;22.70;99.90
7445;DHT22;3764;48.126;11.594;2023-08-12T09:21:10;22.70;99.90
7445;DHT22;3764;48.126;11.594;2023-08-12T09:23:40;22.70;99.90
7445;DHT22;3764;48.126;11.594;2023-08-12T09:26:13;22.70;99.90
7445;DHT22;3764;48.126;11.594;2023-08-12T09:28:41;22.80;99.90
7445;DHT22;3764;48.126;11.594;2023-08-12T09:31:22;22.80;99.90
7445;DHT22;3764;48.126;11.594;2023-08-12T09:33:50;22.80;99.90
7445;DHT22;3764;48.126;11.594;2023-08-12T09:36:17;22.80;99.90
7445;DHT22;3764;48.126;11.594;2023-08-12T09:38:46;22.90;99.90
7445;DHT22;3764;48.126;11.594;2023-08-12T09:41:13;22.90;99.90
7445;DHT22;3764;48.126;11.594;2023-08-12T09:43:41;22.90;99.90
7445;DHT22;3764;48.126;11.594;2023-08-12T09:46:11;23.00;99.90
7445;DHT22;3764;48.126;11.594;2023-08-12T09:48:39;23.00;99.90
7445;DHT22;3764;48.126;11.594;2023-08-12T09:51:06;23.10;99.90
7445;DHT22;3764;48.126;11.594;2023-08-12T09:53:33;23.20;99.90
7445;DHT22;3764;48.126;11.594;2023-08-12T09:56:06;23.30;99.90
7445;DHT22;3764;48.126;11.594;2023-08-12T09:58:35;23.30;99.90
7445;DHT22;3764;48.126;11.594;2023-08-12T10:01:03;23.30;99.90
7445;DHT22;3764;48.126;11.594;2023-08-12T10:03:33;23.30;99.90
7445;DHT22;3764;48.126;11.594;2023-08-12T10:06:01;23.40;99.90
7445;DHT22;3764;48.126;11.594;2023-08-12T10:08:29;23.30;99.90
7445;DHT22;3764;48.126;11.594;2023-08-12T10:10:56;23.40;99.90
7445;DHT22;3764;48.126;11.594;2023-08-12T10:13:25;23.40;99.90
7445;DHT22;3764;48.126;11.594;2023-08-12T10:15:52;23.50;99.90
7445;DHT22;3764;48.126;11.594;2023-08-12T10:18:20;23.40;99.90
7445;DHT22;3764;48.126;11.594;2023-08-12T10:20:49;23.40;99.90
7445;DHT22;3764;48.126;11.594;2023-08-12T10:23:17;23.40;99.90
7445;DHT22;3764;48.126;11.594;2023-08-12T10:25:44;23.40;99.90
7445;DHT22;3764;48.126;11.594;2023-08-12T10:28:12;23.50;99.90
7445;DHT22;3764;48.126;11.594;2023-08-12T10:30:41;23.70;99.90
7445;DHT22;3764;48.126;11.594;2023-08-12T10:33:09;23.80;99.90
7445;DHT22;3764;48.126;11.594;2023-08-12T10:35:43;23.90;99.90
7445;DHT22;3764;48.126;11.594;2023-08-12T10:38:13;24.00;99.90
7445;DHT22;3764;48.126;11.594;2023-08-12T10:40:41;24.00;99.90
7445;DHT22;3764;48.126;11.594;2023-08-12T10:43:08;24.00;99.90
7445;DHT22;3764;48.126;11.594;2023-08-12T10:45:46;24.00;99.90
7445;DHT22;3764;48.126;11.594;2023-08-12T10:48:18;24.00;99.90
7445;DHT22;3764;48.126;11.594;2023-08-12T10:50:48;24.00;99.90
7445;DHT22;3764;48.126;11.594;2023-08-12T10:53:26;24.00;99.90
7445;DHT22;3764;48.126;11.594;2023-08-12T10:55:58;24.20;99.90
7445;DHT22;3764;48.126;11.594;2023-08-12T10:58:28;24.20;99.90
7445;DHT22;3764;48.126;11.594;2023-08-12T11:00:57;24.30;99.90
7445;DHT22;3764;48.126;11.594;2023-08-12T11:03:24;24.30;99.90
7445;DHT22;3764;48.126;11.594;2023-08-12T11:05:53;24.30;99.90
7445;DHT22;3764;48.126;11.594;2023-08-12T11:08:26;24.50;99.90
7445;DHT22;3764;48.126;11.594;2023-08-12T11:10:55;24.70;99.90
7445;DHT22;3764;48.126;11.594;2023-08-12T11:13:27;24.70;99.90
7445;DHT22;3764;48.126;11.594;2023-08-12T11:16:05;24.80;99.90
7445;DHT22;3764;48.126;11.594;2023-08-12T11:18:33;24.80;99.90
7445;DHT22;3764;48.126;11.594;2023-08-12T11:21:00;24.70;99.90
7445;DHT22;3764;48.126;11.594;2023-08-12T11:23:28;24.70;99.90
7445;DHT22;3764;48.126;11.594;2023-08-12T11:25:56;24.70;99.90
7445;DHT22;3764;48.126;11.594;2023-08-12T11:28:24;24.70;99.90
7445;DHT22;3764;48.126;11.594;2023-08-12T11:30:52;24.70;99.90
7445;DHT22;3764;48.126;11.594;2023-08-12T11:33:20;24.70;99.90
7445;DHT22;3764;48.126;11.594;2023-08-12T11:35:47;24.80;99.90
7445;DHT22;3764;48.126;11.594;2023-08-12T11:38:15;24.80;99.90
7445;DHT22;3764;48.126;11.594;2023-08-12T11:40:43;24.80;99.90
7445;DHT22;3764;48.126;11.594;2023-08-12T11:43:10;24.80;99.90
7445;DHT22;3764;48.126;11.594;2023-08-12T11:45:42;24.90;99.90
7445;DHT22;3764;48.126;11.594;2023-08-12T11:48:10;24.90;99.90
7445;DHT22;3764;48.126;11.594;2023-08-12T11:50:38;25.00;99.90
7445;DHT22;3764;48.126;11.594;2023-08-12T11:53:06;25.10;99.90
7445;DHT22;3764;48.126;11.594;2023-08-12T11:55:33;25.30;99.90
7445;DHT22;3764;48.126;11.594;2023-08-12T11:58:00;25.40;99.90
7445;DHT22;3764;48.126;11.594;2023-08-12T12:00:27;25.40;99.90
7445;DHT22;3764;48.126;11.594;2023-08-12T12:02:55;25.40;99.90
7445;DHT22;3764;48.126;11.594;2023-08-12T12:05:23;25.50;99.90
7445;DHT22;3764;48.126;11.594;2023-08-12T12:07:53;25.50;99.90
7445;DHT22;3764;48.126;11.594;2023-08-12T12:10:25;25.50;99.90
7445;DHT22;3764;48.126;11.594;2023-08-12T12:12:54;25.50;99.90
7445;DHT22;3764;48.126;11.594;2023-08-12T12:15:22;25.50;99.90
7445;DHT22;3764;48.126;11.594;2023-08-12T12:17:50;25.50;99.90
7445;DHT22;3764;48.126;11.594;2023-08-12T12:20:17;25.50;99.90
7445;DHT22;3764;48.126;11.594;2023-08-12T12:22:45;25.60;99.90
7445;DHT22;3764;48.126;11.594;2023-08-12T12:25:15;25.60;99.90
7445;DHT22;3764;48.126;11.594;2023-08-12T12:27:46;25.70;99.90
7445;DHT22;3764;48.126;11.594;2023-08-12T12:30:14;25.80;99.90
7445;DHT22;3764;48.126;11.594;2023-08-12T12:32:42;25.90;99.90
7445;DHT22;3764;48.126;11.594;2023-08-12T12:35:09;26.00;99.90
7445;DHT22;3764;48.126;11.594;2023-08-12T12:37:36;26.10;99.90
7445;DHT22;3764;48.126;11.594;2023-08-12T12:40:04;26.20;99.90
7445;DHT22;3764;48.126;11.594;2023-08-12T12:42:34;26.20;99.90
7445;DHT22;3764;48.126;11.594;2023-08-12T12:45:01;26.30;99.90
7445;DHT22;3764;48.126;11.594;2023-08-12T12:47:28;26.30;99.90
7445;DHT22;3764;48.126;11.594;2023-08-12T12:49:55;26.30;99.90
7445;DHT22;3764;48.126;11.594;2023-08-12T12:52:22;26.40;99.90
7445;DHT22;3764;48.126;11.594;2023-08-12T12:54:49;26.40;99.90
7445;DHT22;3764;48.126;11.594;2023-08-12T12:57:16;26.50;99.90
7445;DHT22;3764;48.126;11.594;2023-08-12T12:59:45;26.50;99.90
7445;DHT22;3764;48.126;11.594;2023-08-12T13:02:12;26.60;99.90
7445;DHT22;3764;48.126;11.594;2023-08-12T13:04:39;26.60;99.90
7445;DHT22;3764;48.126;11.594;2023-08-12T13:07:06;26.60;99.90
7445;DHT22;3764;48.126;11.594;2023-08-12T13:09:33;26.60;99.90
7445;DHT22;3764;48.126;11.594;2023-08-12T13:12:00;26.60;99.90
7445;DHT22;3764;48.126;11.594;2023-08-12T13:14:27;26.70;99.90
7445;DHT22;3764;48.126;11.594;2023-08-12T13:16:57;26.60;99.90
7445;DHT22;3764;48.126;11.594;2023-08-12T13:19:24;26.60;99.90
7445;DHT22;3764;48.126;11.594;2023-08-12T13:21:51;26.60;99.90
7445;DHT22;3764;48.126;11.594;2023-08-12T13:24:18;26.60;99.90
7445;DHT22;3764;48.126;11.594;2023-08-12T13:26:46;26.60;99.90
7445;DHT22;3764;48.126;11.594;2023-08-12T13:29:13;26.60;99.90
7445;DHT22;3764;48.126;11.594;2023-08-12T13:31:40;26.60;99.90
7445;DHT22;3764;48.126;11.594;2023-08-12T13:34:08;26.50;99.90
7445;DHT22;3764;48.126;11.594;2023-08-12T13:36:35;26.50;99.90
7445;DHT22;3764;48.126;11.594;2023-08-12T13:39:03;26.60;99.90
7445;DHT22;3764;48.126;11.594;2023-08-12T13:41:31;26.50;99.90
7445;DHT22;3764;48.126;11.594;2023-08-12T13:43:58;26.50;99.90
7445;DHT22;3764;48.126;11.594;2023-08-12T13:46:25;26.50;99.90
7445;DHT22;3764;48.126;11.594;2023-08-12T13:48:52;26.50;99.90
7445;DHT22;3764;48.126;11.594;2023-08-12T13:51:21;26.50;99.90
7445;DHT22;3764;48.126;11.594;2023-08-12T13:53:48;26.50;99.90
7445;DHT22;3764;48.126;11.594;2023-08-12T13:56:16;26.50;99.90
7445;DHT22;3764;48.126;11.594;2023-08-12T13:58:43;26.60;99.90
7445;DHT22;3764;48.126;11.594;2023-08-12T14:01:10;26.60;99.90
7445;DHT22;3764;48.126;11.594;2023-08-12T14:03:38;26.60;99.90
7445;DHT22;3764;48.126;11.594;2023-08-12T14:06:05;26.60;99.90
7445;DHT22;3764;48.126;11.594;2023-08-12T14:08:33;26.60;99.90
7445;DHT22;3764;48.126;11.594;2023-08-12T14:11:00;26.60;99.90
7445;DHT22;3764;48.126;11.594;2023-08-12T14:13:27;26.60;99.90
7445;DHT22;3764;48.126;11.594;2023-08-12T14:15:54;26.60;99.90
7445;DHT22;3764;48.126;11.594;2023-08-12T14:18:21;26.50;99.90
7445;DHT22;3764;48.126;11.594;2023-08-12T14:20:48;26.50;99.90
7445;DHT22;3764;48.126;11.594;2023-08-12T14:23:16;26.50;99.90
7445;DHT22;3764;48.126;11.594;2023-08-12T14:25:44;26.50;99.90
7445;DHT22;3764;48.126;11.594;2023-08-12T14:28:11;26.50;99.90
7445;DHT22;3764;48.126;11.594;2023-08-12T14:30:38;26.50;99.90
7445;DHT22;3764;48.126;11.594;2023-08-12T14:33:05;26.50;99.90
7445;DHT22;3764;48.126;11.594;2023-08-12T14:35:34;26.50;99.90
7445;DHT22;3764;48.126;11.594;2023-08-12T14:38:01;26.50;99.90
7445;DHT22;3764;48.126;11.594;2023-08-12T14:40:28;26.50;99.90
7445;DHT22;3764;48.126;11.594;2023-08-12T14:42:57;26.50;99.90
7445;DHT22;3764;48.126;11.594;2023-08-12T14:45:24;26.50;99.90
7445;DHT22;3764;48.126;11.594;2023-08-12T14:47:51;26.60;99.90
7445;DHT22;3764;48.126;11.594;2023-08-12T14:50:18;26.60;99.90
7445;DHT22;3764;48.126;11.594;2023-08-12T14:52:45;26.70;99.90
7445;DHT22;3764;48.126;11.594;2023-08-12T14:55:12;26.80;99.90
7445;DHT22;3764;48.126;11.594;2023-08-12T14:57:39;26.80;99.90
7445;DHT22;3764;48.126;11.594;2023-08-12T15:00:09;26.80;99.90
7445;DHT22;3764;48.126;11.594;2023-08-12T15:02:37;26.80;99.90
7445;DHT22;3764;48.126;11.594;2023-08-12T15:05:04;26.90;99.90
7445;DHT22;3764;48.126;11.594;2023-08-12T15:07:32;26.90;99.90
7445;DHT22;3764;48.126;11.594;2023-08-12T15:09:59;26.80;99.90
7445;DHT22;3764;48.126;11.594;2023-08-12T15:12:26;26.80;99.90
7445;DHT22;3764;48.126;11.594;2023-08-12T15:14:53;26.80;99.90
7445;DHT22;3764;48.126;11.594;2023-08-12T15:17:22;26.80;99.90
7445;DHT22;3764;48.126;11.594;2023-08-12T15:19:49;26.70;99.90
7445;DHT22;3764;48.126;11.594;2023-08-12T15:22:16;26.70;99.90
7445;DHT22;3764;48.126;11.594;2023-08-12T15:24:43;26.70;99.90
7445;DHT22;3764;48.126;11.594;2023-08-12T15:27:11;26.60;99.90
7445;DHT22;3764;48.126;11.594;2023-08-12T15:29:38;26.60;99.90
7445;DHT22;3764;48.126;11.594;2023-08-12T15:32:05;26.50;99.90
7445;DHT22;3764;48.126;11.594;2023-08-12T15:34:34;26.50;99.90
7445;DHT22;3764;48.126;11.594;2023-08-12T15:37:01;26.50;99.90
7445;DHT22;3764;48.126;11.594;2023-08-12T15:39:29;26.50;99.90
7445;DHT22;3764;48.126;11.594;2023-08-12T15:41:56;26.50;99.90
7445;DHT22;3764;48.126;11.594;2023-08-12T15:44:23;26.40;99.90
7445;DHT22;3764;48.126;11.594;2023-08-12T15:46:50;26.40;99.90
7445;DHT22;3764;48.126;11.594;2023-08-12T15:49:17;26.30;99.90